KSWO/SWO METAR and TAF weather

Enter ICAO airport designator
Station Type Date Time Source
KSWO METAR 2022/01/27 22:53 UTC NOAA

KSWO 272253Z 36008KT 10SM CLR 08/M03 A3029 RMK AO2 SLP260 T00831033


Station Type Date Time Source
KSWO Decoded METAR 2022/01/27 22:53 UTC NOAA

STILLWATER REGIONAL AIRPORT, OK, United States (KSWO) 36-10N 97-05W 290M
Jan 27, 2022 - 05:53 PM EST / 2022.01.27 2253 UTC
Wind: from the N (360 degrees) at 9 MPH (8 KT):0
Visibility: 10 mile(s):0
Sky conditions: clear
Temperature: 46.9 F (8.3 C)
Dew Point: 26.1 F (-3.3 C)
Relative Humidity: 43%
Pressure (altimeter): 30.29 in. Hg (1025 hPa)
ob: KSWO 272253Z 36008KT 10SM CLR 08/M03 A3029 RMK AO2 SLP260 T00831033
cycle: 23

Station Type Date Time Source
KSWO TAF 2022/01/27 18:39 UTC NOAA

TAF KSWO 271737Z 2718/2818 33008KT P6SM SCT250
FM272200 36008KT P6SM SCT120
FM281200 33008KT P6SM BKN070

Example: see airport list